Latest Weather Observations for Camden

IDN60801

Issued at 10:22 pm EDT Monday 26 February 2024 (issued every 10 minutes, with the page automatically refreshed every 10 minutes)

About weather observations | Map of weather stations | Latest weather observations for NSW | Other Formats
Station Details ID: 068192 Name: CAMDEN AIRPORT AWS Lat: -34.04 Lon: 150.69 Height: 73.9 m
Data from the previous 72 hours. | See also: Recent months at Camden
Date/Time
EDT
Temp
°C
App
Temp
°C
Dew
Point
°C
Rel
Hum
%
Delta-T
°C
Wind Press
QNH
hPa
Press
MSL
hPa
Rain since
9am
mm
Dir  Spd
km/h
Gust
km/h
Spd
kts
Gust
kts
26/10:00pm 21.3 21.6 16.9 76 2.7 S 11 15 6 8 1019.4 1019.1 0.0
26/09:30pm 21.5 21.4 16.9 75 2.8 S 13 17 7 9 1019.2 1018.9 0.0
26/09:00pm 21.7 21.6 16.9 74 2.9 S 13 17 7 9 1018.9 1018.6 0.0
26/08:30pm 21.8 21.2 16.7 73 3.1 SSE 15 22 8 12 1018.4 1018.1 0.0
26/08:00pm 22.1 21.9 16.8 72 3.2 SSE 13 19 7 10 1017.9 1017.6 0.0
26/07:30pm 22.3 21.4 16.8 71 3.4 S 17 22 9 12 1017.4 1017.1 0.0
26/07:00pm 22.7 23.0 16.9 70 3.6 SSE 11 17 6 9 1017.1 1016.7 0.0
26/06:30pm 22.7 21.4 16.9 70 3.6 SSE 19 28 10 15 1016.8 1016.4 0.0
26/06:00pm 23.2 21.8 17.0 68 3.8 SE 20 32 11 17 1016.3 1015.9 0.0
26/05:30pm 23.8 22.7 17.3 67 4.0 SE 19 30 10 16 1015.8 1015.4 0.0
26/05:00pm 24.7 23.7 17.9 66 4.3 SE 20 28 11 15 1015.2 1014.9 0.0
26/04:30pm 26.0 24.6 17.9 61 5.1 SE 22 33 12 18 1014.7 1014.4 0.0
26/04:00pm 27.5 26.7 17.9 55 6.1 SE 19 32 10 17 1014.4 1014.1 0.0
26/03:30pm 29.0 28.4 17.5 49 7.3 SSE 17 26 9 14 1014.4 1014.1 0.0
26/03:00pm 27.7 27.5 16.6 50 6.9 SE 13 24 7 13 1014.5 1014.2 0.0
26/02:30pm 27.3 26.8 16.9 53 6.5 SE 15 26 8 14 1014.8 1014.5 0.0
26/02:00pm 26.9 25.2 16.2 52 6.6 SSE 20 30 11 16 1014.8 1014.5 0.0
26/01:30pm 28.4 27.4 17.6 52 6.8 ESE 19 28 10 15 1014.8 1014.5 0.0
26/01:00pm 29.8 28.3 17.6 48 7.8 SSE 22 32 12 17 1014.6 1014.3 0.0
26/12:30pm 29.5 29.4 17.0 47 7.9 ESE 13 19 7 10 1014.5 1014.2 0.0
26/12:00pm 29.4 29.8 16.2 44 8.2 SSE 9 15 5 8 1014.6 1014.3 0.0
26/11:30am 27.7 28.0 17.8 54 6.3 ESE 13 20 7 11 1014.8 1014.5 0.0
26/11:00am 26.7 28.3 18.3 60 5.3 SE 7 24 4 13 1014.9 1014.6 0.0
26/10:30am 24.8 27.6 18.0 66 4.3 CALM 0 0 0 0 1014.4 1014.1 0.0
26/10:00am 23.3 25.9 17.5 70 3.6 CALM 0 0 0 0 1014.4 1014.1 0.0
26/09:30am 21.5 24.4 18.1 81 2.1 CALM 0 0 0 0 1014.2 1013.9 0.0
26/09:00am 20.0 23.0 18.5 91 0.9 CALM 0 0 0 0 1014.3 1014.0 0.0
26/08:30am 18.8 21.9 18.6 99 0.1 CALM 0 0 0 0 1014.2 1013.9 0.0
26/08:00am 17.3 19.8 17.3 100 0.0 CALM 0 0 0 0 1014.1 1013.8 0.0
26/07:30am 16.1 18.1 15.9 99 0.1 CALM 0 0 0 0 1014.0 1013.7 0.0
26/07:17am 15.6 17.4 15.4 99 0.1 CALM 0 0 0 0 1014.0 1013.7 0.0
26/07:00am 15.4 17.1 15.2 99 0.1 CALM 0 0 0 0 1013.9 1013.6 0.0
26/06:44am 15.2 16.8 15.0 99 0.1 CALM 0 0 0 0 1013.6 1013.3 0.0
26/06:32am 15.6 17.4 15.4 99 0.1 CALM 0 0 0 0 1013.4 1013.1 0.0
26/06:30am 15.6 17.4 15.4 99 0.1 CALM 0 0 0 0 1013.3 1013.0 0.0
26/06:18am 15.7 17.5 15.5 99 0.1 CALM 0 0 0 0 1013.2 1012.9 0.0
26/06:07am 15.6 17.4 15.4 99 0.1 CALM 0 0 0 0 1013.1 1012.8 0.0
26/06:00am 15.6 17.4 15.4 99 0.1 CALM 0 0 0 0 1013.0 1012.7 0.0
26/05:55am 15.6 17.4 15.4 99 0.1 CALM 0 0 0 0 1013.0 1012.7 0.0
26/05:44am 15.6 17.4 15.4 99 0.1 CALM 0 0 0 0 1012.9 1012.6 0.0
26/05:30am 15.7 17.5 15.5 99 0.1 CALM 0 0 0 0 1012.8 1012.5 0.0
26/05:25am 16.0 17.9 15.8 99 0.1 CALM 0 0 0 0 1012.8 1012.5 0.0
26/05:00am 16.0 17.9 15.8 99 0.1 CALM 0 0 0 0 1013.0 1012.7 0.0
26/04:54am 16.1 18.1 15.9 99 0.1 CALM 0 0 0 0 1013.0 1012.7 0.0
26/04:32am 16.1 18.1 15.9 99 0.1 CALM 0 0 0 0 1013.0 1012.7 0.0
26/04:30am 16.1 18.1 15.9 99 0.1 CALM 0 0 0 0 1012.9 1012.6 0.0
26/04:14am 16.2 18.2 16.0 99 0.1 CALM 0 0 0 0 1012.9 1012.6 0.0
26/04:00am 16.4 18.5 16.2 99 0.1 CALM 0 0 0 0 1012.9 1012.6 0.0
26/03:54am 16.3 18.3 16.1 99 0.1 CALM 0 0 0 0 1013.0 1012.7 0.0
26/03:42am 16.5 18.6 16.3 99 0.1 CALM 0 0 0 0 1012.8 1012.5 0.0
26/03:30am 16.5 18.6 16.3 99 0.1 CALM 0 0 0 0 1012.9 1012.6 0.0
26/03:24am 16.5 18.6 16.3 99 0.1 CALM 0 0 0 0 1013.0 1012.7 0.0
26/03:00am 16.4 18.5 16.2 99 0.1 CALM 0 0 0 0 1013.2 1012.9 0.0
26/02:30am 16.7 17.8 16.5 99 0.1 S 6 6 3 3 1013.5 1013.2 0.0
26/02:00am 16.7 18.9 16.5 99 0.1 CALM 0 0 0 0 1013.7 1013.4 0.0
26/01:30am 17.4 19.9 17.2 99 0.1 CALM 0 0 0 0 1013.8 1013.5 0.0
26/01:29am 17.4 19.9 17.2 99 0.1 CALM 0 0 0 0 1013.8 1013.5 0.0
26/01:10am 17.4 19.8 17.1 98 0.2 CALM 0 0 0 0 1013.8 1013.5 0.0
26/01:00am 17.4 19.8 16.9 97 0.3 CALM 0 0 0 0 1013.7 1013.4 0.0
26/12:30am 17.8 20.2 17.0 95 0.5 CALM 0 0 0 0 1014.2 1013.9 0.0
26/12:00am 18.1 20.4 16.8 92 0.8 CALM 0 0 0 0 1014.2 1013.9 0.0
 
Date/Time
EDT
Temp
°C
App
Temp
°C
Dew
Point
°C
Rel
Hum
%
Delta-T
°C
Wind Press
QNH
hPa
Press
MSL
hPa
Rain since
9am
mm
Dir  Spd
km/h
Gust
km/h
Spd
kts
Gust
kts
25/11:30pm 18.6 21.0 16.9 90 1.0 CALM 0 0 0 0 1014.5 1014.2 0.0
25/11:00pm 19.2 21.7 17.2 88 1.2 CALM 0 0 0 0 1014.7 1014.4 0.0
25/10:30pm 19.5 21.9 16.9 85 1.6 CALM 0 0 0 0 1014.8 1014.5 0.0
25/10:00pm 20.4 22.8 17.0 81 2.1 CALM 0 0 0 0 1014.7 1014.4 0.0
25/09:30pm 21.4 23.8 17.0 76 2.7 CALM 0 4 0 2 1014.8 1014.5 0.0
25/09:00pm 22.1 24.5 17.0 73 3.1 CALM 0 0 0 0 1014.6 1014.3 0.0
25/08:30pm 22.5 24.4 16.8 70 3.5 E 2 9 1 5 1014.1 1013.8 0.0
25/08:00pm 23.5 24.0 16.5 65 4.3 E 9 17 5 9 1013.8 1013.5 0.0
25/07:30pm 24.3 24.3 16.3 61 4.9 ENE 11 17 6 9 1013.5 1013.2 0.0
25/07:00pm 25.9 25.4 15.9 54 6.1 ENE 13 20 7 11 1013.1 1012.8 0.0
25/06:30pm 27.4 27.7 16.1 50 7.0 NE 9 17 5 9 1012.7 1012.4 0.0
25/06:00pm 28.2 28.3 15.5 46 7.8 NNW 9 11 5 6 1012.6 1012.3 0.0
25/05:30pm 28.8 29.8 16.4 47 7.7 NNW 6 11 3 6 1012.7 1012.4 0.0
25/05:00pm 28.5 28.7 15.8 46 7.8 NNW 9 13 5 7 1012.7 1012.4 0.0
25/04:30pm 28.3 28.4 16.6 49 7.3 N 11 13 6 7 1013.0 1012.7 0.0
25/04:00pm 28.0 27.6 16.3 49 7.3 N 13 17 7 9 1013.2 1012.9 0.0
25/03:30pm 27.7 27.6 15.0 45 7.7 NE 9 15 5 8 1013.5 1013.2 0.0
25/03:00pm 27.1 26.8 15.5 49 7.1 NNW 11 15 6 8 1014.2 1013.9 0.0
25/02:30pm 27.1 27.7 15.8 50 6.9 SSE 7 13 4 7 1014.7 1014.4 0.0
25/02:00pm 26.1 25.6 13.9 47 7.2 N 9 19 5 10 1015.3 1015.0 0.0
25/01:30pm 25.9 25.1 14.1 48 7.0 NNE 11 24 6 13 1015.8 1015.4 0.0
25/01:00pm 25.2 24.5 14.3 50 6.5 NNW 11 19 6 10 1016.3 1015.9 0.0
25/12:30pm 24.1 22.9 13.9 53 6.0 NNW 13 20 7 11 1016.9 1016.5 0.0
25/12:00pm 24.7 23.0 14.8 54 5.9 NNW 17 30 9 16 1017.5 1017.2 0.0
25/11:30am 23.4 21.9 14.1 56 5.5 N 15 22 8 12 1018.0 1017.7 0.0
25/11:00am 23.6 23.8 14.6 57 5.3 N 7 11 4 6 1018.6 1018.3 0.0
25/10:30am 22.6 22.6 13.7 57 5.2 NNE 6 9 3 5 1019.1 1018.8 0.0
25/10:00am 22.0 23.2 14.9 64 4.2 ENE 2 6 1 3 1019.4 1019.1 0.0
25/09:30am 19.9 20.4 14.9 73 2.9 SSW 6 7 3 4 1019.6 1019.3 0.0
25/09:00am 18.2 18.7 15.5 84 1.6 S 7 11 4 6 1019.8 1019.5 0.4
25/08:30am 16.2 16.4 14.2 88 1.1 SSE 6 9 3 5 1019.5 1019.2 0.4
25/08:00am 14.8 15.5 14.5 98 0.2 ESE 4 7 2 4 1019.3 1019.0 0.4
25/07:30am 13.2 14.1 13.0 99 0.1 CALM 0 6 0 3 1019.3 1019.0 0.4
25/07:00am 12.0 12.6 11.8 99 0.1 CALM 0 0 0 0 1019.3 1019.0 0.4
25/06:32am 12.4 13.1 12.2 99 0.1 CALM 0 0 0 0 1019.0 1018.7 0.4
25/06:30am 12.5 13.2 12.3 99 0.1 CALM 0 0 0 0 1019.0 1018.7 0.4
25/06:13am 12.8 13.6 12.6 99 0.1 CALM 0 0 0 0 1019.1 1018.8 0.4
25/06:00am 12.6 13.4 12.4 99 0.1 CALM 0 0 0 0 1019.1 1018.8 0.4
25/05:34am 12.8 13.6 12.6 99 0.1 CALM 0 0 0 0 1019.0 1018.7 0.4
25/05:30am 12.9 13.7 12.7 99 0.1 CALM 0 0 0 0 1019.1 1018.8 0.4
25/05:22am 13.0 13.9 12.8 99 0.1 CALM 0 0 0 0 1019.0 1018.7 0.4
25/05:15am 13.1 14.0 12.9 99 0.1 CALM 0 0 0 0 1019.0 1018.7 0.4
25/05:12am 13.0 13.9 12.8 99 0.1 CALM 0 0 0 0 1019.1 1018.8 0.4
25/05:06am 13.0 13.9 12.8 99 0.1 CALM 0 0 0 0 1019.0 1018.7 0.4
25/05:00am 12.9 13.7 12.7 99 0.1 CALM 0 0 0 0 1018.9 1018.6 0.4
25/04:44am 13.2 14.1 12.9 98 0.2 CALM 0 0 0 0 1019.0 1018.7 0.4
25/04:30am 13.4 14.4 13.1 98 0.2 CALM 0 0 0 0 1019.0 1018.7 0.4
25/04:00am 13.5 14.4 13.0 97 0.3 CALM 0 0 0 0 1019.0 1018.7 0.4
25/03:30am 13.9 14.9 13.3 96 0.3 CALM 0 0 0 0 1019.4 1019.1 0.4
25/03:00am 14.3 15.3 13.3 94 0.6 CALM 0 0 0 0 1019.6 1019.3 0.4
25/02:30am 14.7 15.8 13.4 92 0.7 CALM 0 0 0 0 1019.8 1019.5 0.4
25/02:00am 15.1 16.2 13.5 90 0.9 CALM 0 0 0 0 1019.8 1019.5 0.4
25/01:50am 15.2 16.2 13.2 88 1.1 CALM 0 0 0 0 1020.0 1019.7 0.4
25/01:31am 15.5 15.4 13.3 87 1.2 SSW 6 7 3 4 1020.1 1019.8 0.4
25/01:30am 15.5 15.4 13.3 87 1.2 SSW 6 7 3 4 1020.1 1019.8 0.4
25/01:00am 16.2 16.0 13.7 85 1.4 SW 7 9 4 5 1020.3 1020.0 0.4
25/12:30am 16.7 16.6 13.8 83 1.6 SW 7 9 4 5 1020.5 1020.2 0.4
25/12:00am 17.2 16.8 14.1 82 1.8 SW 9 11 5 6 1020.7 1020.4 0.4
 
Date/Time
EDT
Temp
°C
App
Temp
°C
Dew
Point
°C
Rel
Hum
%
Delta-T
°C
Wind Press
QNH
hPa
Press
MSL
hPa
Rain since
9am
mm
Dir  Spd
km/h
Gust
km/h
Spd
kts
Gust
kts
24/11:30pm 17.9 17.9 14.2 79 2.1 SW 7 9 4 5 1020.9 1020.6 0.4
24/11:00pm 18.7 18.8 14.4 76 2.5 SW 7 9 4 5 1021.1 1020.8 0.4
24/10:30pm 18.9 18.2 14.4 75 2.6 SW 11 15 6 8 1021.3 1021.0 0.4
24/10:00pm 18.9 19.1 14.6 76 2.5 SW 7 11 4 6 1021.4 1021.1 0.4
24/09:30pm 19.0 19.1 14.5 75 2.6 SSW 7 11 4 6 1021.2 1020.9 0.4
24/09:00pm 19.2 18.2 14.5 74 2.7 S 13 17 7 9 1020.8 1020.5 0.4
24/08:30pm 19.3 18.5 14.1 72 3.0 SSE 11 15 6 8 1020.3 1020.0 0.4
24/08:00pm 19.5 19.4 13.9 70 3.2 S 7 11 4 6 1019.9 1019.6 0.4
24/07:30pm 19.6 18.7 13.8 69 3.3 SSE 11 15 6 8 1019.5 1019.2 0.4
24/07:00pm 19.9 18.0 13.1 65 3.9 S 15 19 8 10 1019.1 1018.8 0.4
24/06:30pm 20.1 19.2 13.8 67 3.6 SSE 11 17 6 9 1018.8 1018.5 0.4
24/06:00pm 20.6 19.3 13.8 65 3.9 SSE 13 20 7 11 1018.7 1018.4 0.4
24/05:30pm 20.4 18.5 13.1 63 4.2 S 15 20 8 11 1018.8 1018.5 0.4
24/05:00pm 20.4 18.3 13.6 65 3.9 SSE 17 22 9 12 1018.5 1018.2 0.4
24/04:30pm 20.7 19.4 13.6 64 4.1 SSE 13 17 7 9 1018.5 1018.2 0.4
24/04:00pm 20.5 19.2 13.7 65 3.9 SSE 13 20 7 11 1018.4 1018.1 0.4
24/03:30pm 20.4 18.5 14.1 67 3.7 SSE 17 26 9 14 1018.4 1018.1 0.4
24/03:00pm 22.1 21.3 15.0 64 4.2 SSE 13 19 7 10 1018.3 1018.0 0.4
24/02:30pm 20.7 18.8 14.1 66 3.8 SSE 17 26 9 14 1018.5 1018.2 0.4
24/02:00pm 20.4 18.4 13.8 66 3.8 SSE 17 28 9 15 1018.5 1018.2 0.2
24/01:30pm 20.5 19.4 14.2 67 3.7 SSE 13 20 7 11 1018.5 1018.2 0.2
24/01:00pm 20.3 19.2 14.4 69 3.4 SSE 13 22 7 12 1018.5 1018.2 0.2
24/12:30pm 20.3 19.9 15.3 73 3.0 S 11 15 6 8 1018.5 1018.2 0.2
24/12:00pm 19.9 19.6 15.5 76 2.6 SSE 11 19 6 10 1018.6 1018.3 0.2
24/11:30am 19.5 18.6 15.8 79 2.2 SSE 15 24 8 13 1018.6 1018.3 0.2
24/11:00am 19.4 19.2 15.7 79 2.2 SSE 11 19 6 10 1018.5 1018.2 0.2
24/10:30am 19.2 19.5 15.9 81 2.0 SSE 9 13 5 7 1018.1 1017.8 0.2
24/10:00am 18.9 18.9 16.3 85 1.6 SSE 11 17 6 9 1017.7 1017.4 0.2
24/09:49am 18.7 18.4 16.5 87 1.3 SSE 13 20 7 11 1017.6 1017.3 0.2
24/09:40am 18.5 18.2 16.5 88 1.2 SSE 13 20 7 11 1017.3 1017.0 0.2
24/09:30am 18.3 19.0 17.0 92 0.8 SSE 9 15 5 8 1017.2 1016.9 0.2
24/09:20am 18.5 18.7 16.8 90 1.0 S 11 17 6 9 1017.1 1016.7 0.2
24/09:00am 18.8 19.8 16.9 89 1.1 SSE 7 11 4 6 1016.9 1016.5 -
24/08:45am 18.8 19.9 17.1 90 1.0 S 7 13 4 7 1016.7 1016.3 -
24/08:30am 18.7 19.8 17.2 91 0.9 S 7 13 4 7 1016.6 1016.2 -
24/08:15am 18.6 19.8 17.4 93 0.7 SSW 7 9 4 5 1016.4 1016.0 -
24/08:00am 18.6 20.0 17.4 93 0.7 SW 6 9 3 5 1016.3 1015.9 -
24/07:30am 18.5 19.7 17.3 93 0.7 SW 7 11 4 6 1016.1 1015.7 -
24/07:19am 18.5 19.3 17.3 93 0.7 SW 9 13 5 7 1015.9 1015.5 -
24/07:07am 18.5 20.0 17.5 94 0.6 SW 6 9 3 5 1015.7 1015.3 -
24/07:00am 18.5 20.6 17.3 93 0.7 SW 2 7 1 4 1015.5 1015.1 -
24/06:52am 18.5 20.6 17.3 93 0.7 SSW 2 7 1 4 1015.3 1015.0 -
24/06:30am 18.5 19.8 17.0 91 0.9 SW 6 7 3 4 1015.0 1014.7 -
24/06:08am 18.9 19.8 16.5 86 1.4 SSW 7 11 4 6 1014.8 1014.5 -
24/06:00am 19.1 19.9 16.3 84 1.7 SSW 7 11 4 6 1014.6 1014.3 -
24/05:57am 19.2 20.1 16.6 85 1.6 SW 7 9 4 5 1014.6 1014.3 -
24/05:30am 19.2 19.6 16.4 84 1.7 SSW 9 15 5 8 1014.1 1013.8 -
24/05:00am 19.1 19.2 16.5 85 1.6 S 11 19 6 10 1013.7 1013.4 -
24/04:30am 19.5 19.1 16.2 81 2.0 S 13 19 7 10 1013.7 1013.4 -
24/04:00am 19.8 19.4 16.3 80 2.1 S 13 19 7 10 1013.8 1013.5 -
24/03:30am 19.9 19.5 16.3 80 2.2 S 13 24 7 13 1013.3 1013.0 -
24/03:00am 20.1 19.9 16.7 81 2.1 S 13 20 7 11 1013.3 1013.0 1.0
24/02:30am 20.2 20.0 16.8 81 2.1 SE 13 20 7 11 1013.2 1012.9 -
24/02:22am 20.2 19.7 16.8 81 2.1 SSE 15 20 8 11 1012.8 1012.5 -
24/02:00am 20.3 20.3 17.1 82 2.0 S 13 20 7 11 1013.7 1013.4 -
24/01:30am 20.4 20.0 17.2 82 2.0 S 15 20 8 11 1013.2 1012.9 -
24/01:00am 20.4 19.8 17.6 84 1.7 S 17 22 9 12 1013.1 1012.8 -
24/12:50am 20.5 19.9 17.5 83 1.8 SSW 17 26 9 14 1013.6 1013.3 -
24/12:41am 20.5 20.6 17.5 83 1.8 S 13 20 7 11 1013.3 1013.0 -
24/12:30am 20.5 19.9 17.5 83 1.8 SSE 17 26 9 14 1013.0 1012.7 -
24/12:00am 20.7 20.0 18.3 86 1.5 S 19 28 10 15 1013.3 1013.0 -
 
Date/Time
EDT
Temp
°C
App
Temp
°C
Dew
Point
°C
Rel
Hum
%
Delta-T
°C
Wind Press
QNH
hPa
Press
MSL
hPa
Rain since
9am
mm
Dir  Spd
km/h
Gust
km/h
Spd
kts
Gust
kts
23/11:48pm 20.8 21.0 18.6 87 1.4 SSE 15 30 8 16 1013.2 1012.9 -
23/11:30pm 20.9 21.2 18.8 88 1.3 SSE 15 24 8 13 1012.9 1012.6 -
23/11:00pm 22.3 22.1 18.5 79 2.4 SSE 17 28 9 15 1012.7 1012.4 -
23/10:30pm 23.0 24.2 19.0 78 2.5 SSE 11 19 6 10 1011.9 1011.6 -

Other formats

Comma delimited format used in spreadsheet applications
http://www.bom.gov.au/fwo/IDN60801/IDN60801.94755.axf

JavaScript Object Notation format (JSON) in row-major order
http://www.bom.gov.au/fwo/IDN60801/IDN60801.94755.json

Data quality

Most of these data are generated automatically and are frequently updated. Quality checks on data are not normally performed. It is possible for incorrect values to appear. Refer to information at About Latest Weather Observations and please check the disclaimer before using these data.